Latest Weather Observations for Sydney Airport

IDN60801

Issued at 4:13 am EST Wednesday 23 September 2020 (issued every 10 minutes, with the page automatically refreshed every 10 minutes)

About weather observations | Map of weather stations | Latest weather observations for NSW | Other Formats
Station Details ID: 066037 Name: SYDNEY AIRPORT AMO Lat: -33.95 Lon: 151.17 Height: 6.0 m
Data from the previous 72 hours. | See also: Recent months at Sydney Airport
Date/Time
EST
Temp
°C
App
Temp
°C
Dew
Point
°C
Rel
Hum
%
Delta-T
°C
Wind Press
QNH
hPa
Press
MSL
hPa
Rain since
9am
mm
Dir  Spd
km/h
Gust
km/h
Spd
kts
Gust
kts
23/04:00am 15.6 12.7 4.9 49 5.0 SW 9 13 5 7 1011.3 1011.3 0.0
23/03:30am 15.4 13.5 7.7 60 3.8 SSW 7 9 4 5 1011.4 1011.4 0.0
23/03:00am 15.5 14.9 7.5 59 4.0 CALM 0 0 0 0 1011.4 1011.4 0.0
23/02:30am 15.6 14.1 9.3 66 3.2 SSE 7 9 4 5 1011.5 1011.5 0.0
23/02:00am 16.7 14.1 6.2 50 5.1 SSW 9 11 5 6 1011.5 1011.5 0.0
23/01:30am 17.4 14.8 6.3 48 5.5 SW 9 9 5 5 1011.9 1011.9 0.0
23/01:00am 17.5 14.5 7.8 53 4.9 WSW 13 15 7 8 1011.8 1011.8 0.0
23/12:30am 19.2 16.3 6.3 43 6.4 WNW 11 15 6 8 1011.7 1011.7 0.0
23/12:00am 19.0 15.3 6.2 43 6.3 NW 15 19 8 10 1011.4 1011.4 0.0
 
Date/Time
EST
Temp
°C
App
Temp
°C
Dew
Point
°C
Rel
Hum
%
Delta-T
°C
Wind Press
QNH
hPa
Press
MSL
hPa
Rain since
9am
mm
Dir  Spd
km/h
Gust
km/h
Spd
kts
Gust
kts
22/11:30pm 19.4 15.2 5.5 40 6.8 NW 17 20 9 11 1011.4 1011.4 0.0
22/11:00pm 19.7 15.8 5.4 39 7.0 NW 15 26 8 14 1011.4 1011.4 0.0
22/10:30pm 20.2 16.7 5.4 38 7.3 WNW 13 19 7 10 1011.5 1011.5 0.0
22/10:00pm 20.5 16.1 4.9 36 7.6 NW 17 26 9 14 1011.6 1011.6 0.0
22/09:30pm 20.7 16.6 4.3 34 7.9 WNW 15 20 8 11 1011.8 1011.8 0.0
22/09:00pm 20.7 16.5 3.9 33 8.1 WNW 15 19 8 10 1011.9 1011.9 0.0
22/08:30pm 21.2 16.5 3.0 30 8.6 W 17 26 9 14 1011.7 1011.7 0.0
22/08:00pm 21.8 16.0 2.5 28 9.1 WNW 22 32 12 17 1011.6 1011.6 0.0
22/07:30pm 22.3 15.7 1.9 26 9.5 WNW 26 33 14 18 1011.2 1011.2 0.0
22/07:00pm 23.0 16.7 1.4 24 10.1 WNW 24 32 13 17 1010.6 1010.6 0.0
22/06:30pm 23.6 16.4 0.7 22 10.6 WNW 28 37 15 20 1010.0 1010.0 0.0
22/06:00pm 24.1 16.9 0.4 21 10.9 WNW 28 39 15 21 1009.5 1009.5 0.0
22/05:30pm 25.1 17.9 0.6 20 11.4 W 28 37 15 20 1009.1 1009.1 0.0
22/05:00pm 25.3 17.6 0.0 19 11.7 WNW 30 48 16 26 1008.6 1008.6 0.0
22/04:30pm 26.4 18.2 0.2 18 12.2 WNW 33 41 18 22 1008.2 1008.2 0.0
22/04:00pm 26.8 17.7 -0.3 17 12.6 WNW 37 46 20 25 1008.1 1008.1 0.0
22/03:31pm 26.9 18.6 -1.9 15 13.0 WNW 32 50 17 27 1007.9 1007.9 0.0
22/03:30pm 26.9 18.7 -1.0 16 12.8 WNW 32 43 17 23 1008.0 1008.0 0.0
22/03:00pm 27.1 18.2 -1.7 15 13.1 NW 35 50 19 27 1007.9 1007.9 0.0
22/02:30pm 27.2 18.8 -2.6 14 13.3 WNW 32 50 17 27 1007.8 1007.8 0.0
22/02:00pm 27.2 18.9 -1.7 15 13.1 WNW 32 43 17 23 1007.9 1007.9 0.0
22/01:44pm 27.4 19.7 0.2 17 12.8 WNW 30 48 16 26 1008.0 1008.0 0.0
22/01:30pm 27.7 18.9 -1.3 15 13.3 WNW 35 46 19 25 1008.1 1008.1 0.0
22/01:14pm 26.9 17.6 -1.9 15 13.0 WNW 37 56 20 30 1008.3 1008.3 0.0
22/01:00pm 26.8 17.0 -2.9 14 13.2 WNW 39 52 21 28 1008.4 1008.4 0.0
22/12:51pm 26.2 17.8 -2.4 15 12.7 WNW 32 52 17 28 1008.4 1008.4 0.0
22/12:30pm 27.3 19.1 0.1 17 12.8 W 33 41 18 22 1008.7 1008.7 0.0
22/12:00pm 26.0 19.0 2.0 21 11.6 WNW 28 37 15 20 1009.1 1009.1 0.0
22/11:30am 26.0 19.9 2.7 22 11.3 W 24 32 13 17 1009.5 1009.5 0.0
22/11:00am 24.9 18.1 3.0 24 10.7 W 28 39 15 21 1009.8 1009.8 0.0
22/10:30am 24.5 17.4 1.4 22 10.9 W 28 35 15 19 1010.1 1010.1 0.0
22/10:00am 23.6 17.1 2.4 25 10.1 WSW 26 33 14 18 1010.4 1010.4 0.0
22/09:30am 22.8 15.7 3.4 28 9.4 WSW 30 37 16 20 1010.5 1010.5 0.0
22/09:00am 21.9 13.9 3.6 30 8.8 WSW 35 48 19 26 1010.4 1010.4 0.0
22/08:30am 21.4 13.0 3.6 31 8.5 WSW 37 50 20 27 1010.3 1010.3 0.0
22/08:00am 21.1 13.2 4.6 34 8.1 WSW 35 50 19 27 1010.2 1010.2 0.0
22/07:30am 20.5 14.5 7.2 42 6.8 WSW 28 35 15 19 1010.0 1010.0 0.0
22/07:00am 20.2 17.5 11.7 58 4.7 WSW 17 26 9 14 1009.4 1009.4 0.0
22/06:30am 20.1 18.1 13.8 67 3.6 WSW 17 24 9 13 1009.1 1009.1 0.0
22/06:00am 20.0 17.9 13.7 67 3.6 WSW 17 20 9 11 1008.1 1008.1 0.0
22/05:30am 21.5 20.6 13.7 61 4.5 W 11 15 6 8 1007.3 1007.3 0.0
22/05:00am 21.8 19.7 13.7 60 4.7 NW 17 20 9 11 1007.1 1007.1 0.0
22/04:30am 21.4 20.7 13.3 60 4.6 WNW 9 11 5 6 1006.8 1006.8 0.0
22/04:00am 21.4 19.4 12.8 58 4.9 NW 15 22 8 12 1006.3 1006.3 0.0
22/03:30am 21.4 18.6 12.5 57 5.0 NNW 19 22 10 12 1005.7 1005.7 0.0
22/03:00am 21.9 18.8 12.2 54 5.5 NNW 20 28 11 15 1005.8 1005.8 0.0
22/02:30am 22.0 18.8 12.0 53 5.6 N 20 26 11 14 1005.7 1005.7 0.0
22/02:00am 22.4 19.3 11.5 50 6.1 NNW 19 24 10 13 1005.8 1005.8 0.0
22/01:30am 22.8 18.9 10.9 47 6.6 NNW 22 28 12 15 1006.3 1006.3 0.0
22/01:00am 23.9 18.9 10.9 44 7.3 NNW 28 39 15 21 1006.4 1006.4 0.0
22/12:30am 23.9 18.5 10.9 44 7.2 NW 30 39 16 21 1006.5 1006.5 0.0
22/12:00am 24.4 20.6 13.6 51 6.3 NNW 26 33 14 18 1006.4 1006.4 0.0
 
Date/Time
EST
Temp
°C
App
Temp
°C
Dew
Point
°C
Rel
Hum
%
Delta-T
°C
Wind Press
QNH
hPa
Press
MSL
hPa
Rain since
9am
mm
Dir  Spd
km/h
Gust
km/h
Spd
kts
Gust
kts
21/11:30pm 24.2 21.0 15.4 58 5.3 N 26 35 14 19 1006.0 1006.0 0.0
21/11:00pm 21.9 22.4 15.5 67 3.8 SW 7 11 4 6 1006.9 1006.9 0.0
21/10:30pm 23.2 23.8 16.7 67 4.0 W 9 15 5 8 1006.6 1006.6 0.0
21/10:00pm 24.4 22.9 16.4 61 4.9 NNW 19 22 10 12 1007.1 1007.1 0.0
21/09:30pm 24.7 23.7 16.7 61 4.9 NNW 17 20 9 11 1008.2 1008.2 0.0
21/09:00pm 24.8 23.3 16.8 61 4.9 NNW 20 26 11 14 1007.7 1007.7 0.0
21/08:30pm 25.3 23.8 16.7 59 5.3 N 20 28 11 15 1007.6 1007.6 0.0
21/08:00pm 25.2 23.7 16.4 58 5.4 N 19 28 10 15 1007.2 1007.2 0.0
21/07:30pm 25.9 24.2 16.2 55 5.9 NNW 20 26 11 14 1007.0 1007.0 0.0
21/07:00pm 25.9 23.7 15.9 54 6.1 NNW 22 30 12 16 1006.5 1006.5 0.0
21/06:30pm 25.1 24.1 16.5 59 5.3 NE 17 20 9 11 1005.4 1005.4 0.0
21/06:00pm 25.2 23.9 16.9 60 5.1 NNE 19 24 10 13 1005.0 1005.0 0.0
21/05:30pm 24.3 21.5 17.3 65 4.3 NNE 28 35 15 19 1004.8 1004.8 0.0
21/05:00pm 25.0 22.6 16.4 59 5.3 NNE 24 28 13 15 1004.8 1004.8 0.0
21/04:30pm 25.5 21.8 16.9 59 5.3 NNE 32 41 17 22 1005.2 1005.2 0.0
21/04:00pm 26.5 22.5 16.1 52 6.4 NNE 32 37 17 20 1005.6 1005.6 0.0
21/03:30pm 26.1 23.0 17.5 59 5.4 NNE 30 35 16 19 1006.0 1006.0 0.0
21/03:00pm 25.4 21.6 15.7 55 5.9 NNE 30 35 16 19 1006.5 1006.5 0.0
21/02:30pm 26.4 22.9 15.4 50 6.7 NE 28 37 15 20 1006.9 1006.9 0.0
21/02:00pm 26.1 22.6 15.5 52 6.4 NE 28 32 15 17 1007.4 1007.4 0.0
21/01:30pm 27.8 24.9 16.1 49 7.2 NE 26 33 14 18 1007.8 1007.8 0.0
21/01:00pm 29.6 26.0 14.2 39 9.3 NNE 26 35 14 19 1008.0 1008.0 0.0
21/12:30pm 27.3 23.6 16.9 53 6.5 NNE 32 37 17 20 1008.3 1008.3 0.0
21/12:00pm 29.3 25.7 11.8 34 10.2 NNE 22 32 12 17 1008.7 1008.7 0.0
21/11:30am 28.5 24.7 13.6 40 8.9 NNW 26 37 14 20 1009.2 1009.2 0.0
21/11:00am 27.6 24.8 15.3 47 7.5 NNW 24 33 13 18 1009.8 1009.8 0.0
21/10:30am 26.6 23.3 15.0 49 7.0 N 26 33 14 18 1010.3 1010.3 0.0
21/10:00am 26.0 24.0 15.4 52 6.4 N 20 28 11 15 1010.8 1010.8 0.0
21/09:30am 25.3 23.5 15.9 56 5.7 N 20 26 11 14 1011.2 1011.2 0.0
21/09:00am 24.0 22.1 15.2 58 5.3 N 19 24 10 13 1011.5 1011.5 8.6
21/08:30am 22.7 22.2 16.0 66 4.0 N 13 17 7 9 1011.8 1011.8 8.6
21/08:00am 21.1 21.5 15.4 70 3.4 NW 7 13 4 7 1011.9 1011.9 8.6
21/07:30am 19.3 19.9 15.2 77 2.4 NNW 6 11 3 6 1011.8 1011.8 8.6
21/07:00am 17.4 18.9 14.7 84 1.6 CALM 0 0 0 0 1011.9 1011.9 8.6
21/06:30am 16.1 17.0 14.1 88 1.1 W 2 6 1 3 1011.6 1011.6 8.6
21/06:00am 15.2 16.4 13.7 91 0.8 CALM 0 0 0 0 1011.6 1011.6 8.6
21/05:30am 15.1 16.2 13.5 90 0.9 CALM 0 0 0 0 1011.4 1011.4 8.6
21/05:00am 15.7 16.6 13.9 89 1.0 NW 2 6 1 3 1011.3 1011.3 8.6
21/04:30am 16.1 16.1 14.3 89 1.0 NW 7 9 4 5 1011.3 1011.3 8.6
21/04:00am 15.6 15.2 14.0 90 0.9 WSW 9 11 5 6 1011.3 1011.3 8.6
21/03:30am 16.1 15.6 13.9 87 1.2 WSW 9 11 5 6 1011.2 1011.2 8.6
21/03:00am 15.6 14.6 13.4 87 1.2 N 11 13 6 7 1011.1 1011.1 8.6
21/02:30am 15.8 15.3 13.8 88 1.1 W 9 9 5 5 1011.5 1011.5 8.6
21/02:00am 15.7 16.1 13.7 88 1.1 W 4 7 2 4 1011.8 1011.8 8.6
21/01:30am 15.8 15.7 13.8 88 1.1 W 7 7 4 4 1012.3 1012.3 8.6
21/01:00am 15.8 15.6 13.6 87 1.2 WNW 7 9 4 5 1012.4 1012.4 8.6
21/12:30am 16.2 17.3 13.5 84 1.5 CALM 0 0 0 0 1012.5 1012.5 8.6
21/12:00am 16.3 17.3 13.2 82 1.7 CALM 0 0 0 0 1012.8 1012.8 8.6
 
Date/Time
EST
Temp
°C
App
Temp
°C
Dew
Point
°C
Rel
Hum
%
Delta-T
°C
Wind Press
QNH
hPa
Press
MSL
hPa
Rain since
9am
mm
Dir  Spd
km/h
Gust
km/h
Spd
kts
Gust
kts
20/11:30pm 17.2 17.0 13.7 80 2.0 WNW 7 9 4 5 1012.7 1012.7 8.6
20/11:00pm 17.3 16.2 13.2 77 2.3 NW 11 11 6 6 1012.7 1012.7 8.6
20/10:30pm 18.1 16.8 13.8 76 2.4 NNW 13 15 7 8 1012.7 1012.7 8.6
20/10:00pm 18.3 16.3 13.8 75 2.6 NNW 17 19 9 10 1012.8 1012.8 8.6
20/09:30pm 18.4 16.8 13.9 75 2.6 NNW 15 17 8 9 1012.8 1012.8 8.6
20/09:00pm 18.6 16.4 14.3 76 2.5 N 19 24 10 13 1012.8 1012.8 8.6
20/08:30pm 18.3 16.0 14.2 77 2.4 N 19 20 10 11 1012.7 1012.7 8.6
20/08:00pm 19.1 18.3 15.0 77 2.4 N 13 17 7 9 1012.5 1012.5 8.6
20/07:30pm 18.7 18.0 15.4 81 1.9 N 13 17 7 9 1012.2 1012.2 8.6
20/07:00pm 18.6 16.7 15.7 83 1.7 NNE 20 26 11 14 1011.8 1011.8 8.6
20/06:30pm 18.9 16.0 16.0 83 1.7 NNE 26 30 14 16 1011.5 1011.5 8.6
20/06:00pm 18.8 15.0 15.7 82 1.8 NNE 30 37 16 20 1011.4 1011.4 8.6
20/05:30pm 18.8 14.3 15.5 81 1.9 NNE 33 41 18 22 1011.3 1011.3 8.6
20/05:00pm 19.8 15.5 15.9 78 2.3 NNE 33 39 18 21 1011.1 1011.1 8.6
20/04:30pm 20.3 16.0 15.9 76 2.6 NNE 33 41 18 22 1011.0 1011.0 8.6
20/04:00pm 20.4 16.0 15.6 74 2.9 NNE 33 46 18 25 1011.0 1011.0 8.6
20/03:30pm 20.5 15.7 15.7 74 2.9 NNE 35 44 19 24 1011.0 1011.0 8.6
20/03:00pm 20.2 16.0 15.6 75 2.7 NNE 32 37 17 20 1011.1 1011.1 8.6
20/02:30pm 20.2 15.8 15.2 73 2.9 NNE 32 39 17 21 1011.2 1011.2 8.6
20/02:00pm 20.7 17.0 15.0 70 3.4 NNE 28 37 15 20 1011.5 1011.5 8.6
20/01:30pm 19.4 14.7 14.9 75 2.6 NNE 33 39 18 21 1012.2 1012.2 8.6
20/01:00pm 19.3 14.9 15.6 79 2.2 NNE 33 43 18 23 1012.9 1012.9 8.6
20/12:30pm 19.3 15.3 16.3 83 1.8 NNE 32 41 17 22 1013.4 1013.4 8.6
20/12:00pm 18.6 14.8 16.6 88 1.2 NE 32 39 17 21 1014.2 1014.2 8.6
20/11:30am 16.8 13.2 15.2 90 0.9 NNE 28 35 15 19 1014.8 1014.8 8.4
20/11:23am 16.8 13.3 15.5 92 0.8 NNE 28 35 15 19 1015.0 1015.0 8.4
20/11:00am 16.6 14.6 15.5 93 0.6 NNE 20 28 11 15 1015.5 1015.5 8.2
20/10:57am 16.2 14.1 15.1 93 0.6 NNE 20 28 11 15 1015.5 1015.5 8.2
20/10:30am 16.5 14.4 15.2 92 0.8 NNE 20 30 11 16 1016.1 1016.1 7.0
20/10:00am 16.8 15.0 15.5 92 0.8 NNE 19 28 10 15 1016.4 1016.4 4.6
20/09:30am 16.7 15.2 15.2 91 0.9 N 17 24 9 13 1016.6 1016.6 1.6
20/09:25am 16.6 15.4 15.1 91 0.9 N 15 20 8 11 1016.9 1016.9 1.2
20/09:00am 17.2 15.4 15.4 89 1.0 NNE 19 24 10 13 1016.7 1016.7 4.0
20/08:30am 17.2 15.7 15.4 89 1.1 NNE 17 24 9 13 1016.8 1016.8 3.0
20/08:00am 17.2 14.7 15.2 88 1.2 N 22 28 12 15 1016.7 1016.7 1.8
20/07:48am 17.6 15.3 14.7 83 1.7 NNE 20 30 11 16 1016.6 1016.6 1.0
20/07:30am 17.7 15.5 14.8 83 1.7 NNE 20 28 11 15 1016.4 1016.4 0.6
20/07:00am 18.3 16.7 15.0 81 1.9 NNE 17 22 9 12 1016.3 1016.3 0.4
20/06:30am 18.2 15.9 14.7 80 2.0 N 20 30 11 16 1016.1 1016.1 0.4
20/06:00am 18.1 15.5 14.8 81 1.9 N 22 30 12 16 1016.1 1016.1 0.2
20/05:30am 18.2 16.0 14.5 79 2.1 N 19 28 10 15 1016.1 1016.1 0.2
20/05:00am 18.4 15.4 14.9 80 2.0 NNE 24 33 13 18 1016.2 1016.2 0.2
20/04:30am 18.6 14.6 14.1 75 2.6 N 28 37 15 20 1016.3 1016.3 0.2

Other formats

Comma delimited format used in spreadsheet applications
http://www.bom.gov.au/fwo/IDN60801/IDN60801.94767.axf

JavaScript Object Notation format (JSON) in row-major order
http://www.bom.gov.au/fwo/IDN60801/IDN60801.94767.json

Data quality

Most of these data are generated automatically and are frequently updated. Quality checks on data are not normally performed. It is possible for incorrect values to appear. Refer to information at About Latest Weather Observations and please check the disclaimer before using these data.